Current | Radar | Forecast | Satellite
  National Weather Service:
Winter Weather Advisory
    

Updated: 5:59 AM EST on January 17, 2018
Observed at Highland Ave Winchester, Winchester, Massachusetts
Temperature 32.5°F / 0.3°C
Windchill 32°F / 0°C
Humidity 84%
Dew Point 28°F / -2°C
Wind South at 0.0 mph / 0.0 km/h
Wind Gust 0.0 mph / 0.0 km/h
Pressure 30.36 in / 1028 hPa (Rising)
Conditions Light Snow
Visibility 1.0 miles / 1.6 kilometers
UV 0.0 out of 16
Clouds
Yesterday's Maximum 33.8°F / 1.0°C
Yesterday's Minimum 18.9°F / -7.3°C
Sunrise7:10 AM EST
Sunset4:39 PM EST
Moon Rise7:24 AM EST
Moon Set5:22 PM EST
Moon PhaseMoon Phase
New Moon
Raw METARMETAR KBED 171056Z AUTO 06003KT 1SM R11/6000VP6000FT -SN BR VV013 M01/M02 A3031 RMK AO2 SLP281 P0000 T10111017

Winchester, MA

Current Radar

Radar Map
Zoom into radar image
Zoom into animated radar image


  National Weather Service:
Winter Weather Advisory
    

Click here for Marine Information
Scientific forecaster discussion (NWS)

Units: English | Metric

Find the Weather for any City, State or Zipcode, or Country:

U.S. State List | Severe Weather | Tropical Storms | Ski Conditions
United States | Canada | Central America | South America | Asia | Europe | Australia | Africa | Islands

Weather Underground

© Copyright 2018
The Weather Company, LLC